Time;durP1;ratioP1;P1;durP2;ratioP2;P2;SDS_P1;SDS_P2;PMS_P1;PMS_P2;Temp;Humidity;BMP_temperature;BMP_pressure;BME280_temperature;BME280_humidity;BME280_pressure;Samples;Min_cycle;Max_cycle;Signal;HPM_P1;HPM_P2
2021/08/24 00:01:19;;;;;;;7.55;6.95;;;;;;;21.55;49.48;94446.72;828346;71;29744;-77
2021/08/24 00:02:23;;;;;;;7.20;6.58;;;;;;;21.50;49.79;94444.33;808731;73;26772;-77
2021/08/24 00:16:26;;;;;;;8.40;7.08;;;;;;;21.47;51.48;94450.95;827444;71;32655;-76
2021/08/24 00:31:35;;;;;;;7.65;6.85;;;;;;;21.17;53.76;94431.59;827901;71;32751;-75
2021/08/24 00:46:35;;;;;;;7.45;6.78;;;;;;;21.01;54.57;94429.04;833887;71;32861;-76
2021/08/24 01:01:21;;;;;;;7.80;7.20;;;;;;;21.00;54.50;94428.28;833865;71;32711;-78
2021/08/24 01:16:28;;;;;;;7.60;6.90;;;;;;;20.91;53.99;94419.72;828346;71;29699;-77
2021/08/24 01:46:25;;;;;;;8.25;7.35;;;;;;;20.68;55.01;94429.59;822178;71;30345;-76
2021/08/24 02:16:18;;;;;;;9.65;8.28;;;;;;;20.57;53.45;94427.47;834328;71;29784;-76
2021/08/24 02:46:14;;;;;;;8.03;7.30;;;;;;;20.49;52.27;94416.47;828274;71;29739;-77
2021/08/24 03:16:19;;;;;;;9.08;8.18;;;;;;;22.59;50.60;94418.66;833905;71;30179;-75
2021/08/24 03:46:39;;;;;;;9.30;8.50;;;;;;;23.81;47.10;94405.55;808426;72;32860;-77
2021/08/24 04:01:16;;;;;;;8.40;7.70;;;;;;;24.70;44.80;94412.44;828232;71;30186;-77
2021/08/24 04:31:14;;;;;;;9.50;8.67;;;;;;;25.72;42.75;94422.86;828410;71;29652;-78
2021/08/24 04:46:48;;;;;;;9.77;8.97;;;;;;;25.69;44.16;94441.09;825261;71;27011;-75
2021/08/24 05:16:10;;;;;;;9.60;8.63;;;;;;;26.19;44.02;94439.08;833923;71;30383;-77
2021/08/24 05:31:09;;;;;;;9.63;8.73;;;;;;;26.51;43.38;94453.59;833993;71;30284;-75
2021/08/24 05:46:17;;;;;;;11.63;10.57;;;;;;;26.67;43.04;94449.13;833888;71;33191;-78
2021/08/24 06:01:09;;;;;;;11.97;10.40;;;;;;;26.57;43.53;94450.69;828886;71;29791;-76
2021/08/24 06:16:27;;;;;;;11.43;10.43;;;;;;;25.83;44.23;94444.34;833936;71;33485;-76
2021/08/24 06:31:26;;;;;;;11.50;10.37;;;;;;;25.22;46.05;94441.09;828226;71;30383;-77
2021/08/24 06:46:36;;;;;;;11.70;10.53;;;;;;;25.46;46.17;94434.78;828266;71;32055;-77
2021/08/24 07:01:20;;;;;;;12.07;11.03;;;;;;;26.51;44.76;94443.59;829706;71;30163;-75
2021/08/24 07:16:19;;;;;;;12.73;11.43;;;;;;;27.25;42.95;94440.14;827548;71;32735;-78
2021/08/24 07:31:21;;;;;;;16.27;12.40;;;;;;;26.96;43.21;94437.03;833605;71;32814;-77
2021/08/24 07:46:23;;;;;;;12.50;11.30;;;;;;;27.85;42.03;94434.81;828215;71;30266;-76
2021/08/24 08:01:25;;;;;;;12.17;11.17;;;;;;;28.58;40.70;94424.80;829091;71;32056;-76
2021/08/24 08:16:19;;;;;;;11.63;10.50;;;;;;;28.55;39.85;94420.23;828006;71;29708;-77
2021/08/24 08:31:22;;;;;;;10.80;9.73;;;;;;;28.63;38.56;94419.53;827788;71;32636;-79
2021/08/24 08:46:17;;;;;;;11.23;10.30;;;;;;;28.96;37.99;94403.08;828285;71;29792;-77
2021/08/24 09:16:32;;;;;;;11.83;10.73;;;;;;;30.04;34.87;94391.27;827395;71;32702;-78
2021/08/24 09:31:13;;;;;;;10.27;9.30;;;;;;;31.13;33.10;94375.06;828183;71;29351;-78
2021/08/24 09:46:43;;;;;;;9.60;8.80;;;;;;;31.21;31.40;94363.46;826117;71;32754;-77
2021/08/24 10:01:51;;;;;;;10.47;9.57;;;;;;;31.09;30.91;94348.64;828271;71;32130;-77
2021/08/24 10:16:29;;;;;;;11.47;10.47;;;;;;;31.47;31.15;94325.64;833833;71;30572;-76
2021/08/24 10:31:39;;;;;;;10.43;9.53;;;;;;;30.63;31.43;94316.56;833978;71;30416;-77
2021/08/24 10:46:17;;;;;;;11.27;9.80;;;;;;;31.20;31.03;94296.09;834441;70;29866;-78
2021/08/24 11:01:18;;;;;;;10.50;9.70;;;;;;;31.21;30.05;94288.90;834015;71;29957;-76
2021/08/24 11:16:14;;;;;;;11.00;10.10;;;;;;;31.63;29.93;94266.52;833969;71;30172;-80
2021/08/24 11:31:48;;;;;;;10.70;9.80;;;;;;;31.29;29.24;94271.25;827239;71;33207;-78
2021/08/24 11:46:45;;;;;;;10.83;10.03;;;;;;;31.15;29.64;94260.18;827251;71;32828;-77
2021/08/24 12:01:23;;;;;;;10.30;9.40;;;;;;;31.58;28.92;94254.84;827662;71;30519;-77
2021/08/24 12:16:28;;;;;;;10.40;9.60;;;;;;;31.47;28.55;94249.12;827696;71;31879;-77
2021/08/24 12:31:26;;;;;;;10.47;9.67;;;;;;;31.51;27.48;94240.89;827225;71;32748;-77
2021/08/24 12:46:22;;;;;;;10.83;10.00;;;;;;;31.78;27.45;94220.77;827754;71;30371;-78
2021/08/24 13:01:28;;;;;;;9.50;8.80;;;;;;;31.56;26.68;94209.15;833783;71;29942;-79
2021/08/24 13:16:15;;;;;;;9.63;8.80;;;;;;;31.84;26.15;94188.58;827297;71;33216;-76
2021/08/24 13:31:44;;;;;;;9.63;8.93;;;;;;;31.70;26.03;94175.42;833737;71;33171;-77
2021/08/24 13:46:31;;;;;;;7.70;7.10;;;;;;;31.31;25.15;94176.67;825583;71;32864;-76
2021/08/24 14:01:24;;;;;;;7.60;7.00;;;;;;;31.09;25.23;94149.98;817795;71;29969;-78
2021/08/24 14:16:29;;;;;;;7.93;7.33;;;;;;;31.14;26.20;94142.67;833856;71;32678;-78
2021/08/24 14:31:23;;;;;;;8.30;7.60;;;;;;;30.79;27.35;94130.82;833738;71;33238;-77
2021/08/24 14:46:11;;;;;;;8.87;8.07;;;;;;;30.48;27.66;94126.56;822155;71;29785;-76
2021/08/24 15:16:40;;;;;;;8.00;7.47;;;;;;;30.34;27.75;94102.55;776591;75;33559;-77
2021/08/24 17:01:08;;;;;;;9.90;9.00;;;;;;;28.18;34.25;94178.92;828449;71;30168;-75
